createdAt,value
2023-02-28T00:01:55.672Z,66.27
2023-02-28T00:07:17.514Z,66.51
2023-02-28T00:12:39.983Z,66.93
2023-02-28T00:18:02.269Z,68.14
2023-02-28T00:23:24.431Z,68.46
2023-02-28T00:28:46.453Z,68.32
2023-02-28T00:34:08.389Z,68.94
2023-02-28T00:39:30.259Z,70.55
2023-02-28T00:44:52.153Z,68.45
2023-02-28T00:50:14.060Z,69.93
2023-02-28T00:55:35.926Z,70.14
2023-02-28T01:00:57.915Z,69.98
2023-02-28T01:06:19.862Z,69.97
2023-02-28T01:11:42.664Z,68.71
2023-02-28T01:17:04.752Z,69.19
2023-02-28T01:22:26.695Z,69.19
2023-02-28T01:27:48.616Z,69.57
2023-02-28T01:33:10.476Z,70.00
2023-02-28T01:38:32.910Z,69.87
2023-02-28T01:44:04.689Z,70.53
2023-02-28T01:49:26.666Z,71.25
2023-02-28T01:54:55.148Z,71.44
2023-02-28T02:00:20.769Z,72.01
2023-02-28T02:05:43.061Z,73.34
2023-02-28T02:11:11.427Z,73.70
2023-02-28T02:16:53.347Z,74.75
2023-02-28T02:22:18.183Z,74.57
2023-02-28T02:27:46.045Z,74.15
2023-02-28T02:33:35.349Z,73.79
2023-02-28T02:39:06.163Z,74.37
2023-02-28T02:44:46.529Z,74.33
2023-02-28T02:50:14.903Z,76.15
2023-02-28T02:55:42.253Z,77.00
2023-02-28T03:01:05.708Z,77.95
2023-02-28T03:06:27.837Z,78.85
2023-02-28T03:11:51.409Z,78.50
2023-02-28T03:18:09.635Z,79.28
2023-02-28T03:23:46.266Z,78.88
2023-02-28T03:29:12.696Z,78.32
2023-02-28T03:34:39.389Z,78.72
2023-02-28T03:40:07.703Z,77.99
2023-02-28T03:45:33.481Z,77.79
2023-02-28T03:50:58.602Z,78.72
2023-02-28T03:56:25.677Z,78.44
2023-02-28T04:01:50.050Z,78.20
2023-02-28T04:07:12.675Z,78.48
2023-02-28T04:12:34.698Z,78.70
2023-02-28T04:17:56.652Z,78.01
2023-02-28T04:23:18.522Z,79.62
2023-02-28T04:28:40.337Z,80.00
2023-02-28T04:34:02.767Z,79.68
2023-02-28T04:39:25.552Z,79.00
2023-02-28T04:44:47.461Z,79.28
2023-02-28T04:50:09.799Z,78.37
2023-02-28T04:55:31.649Z,78.43
2023-02-28T05:00:54.694Z,78.94
2023-02-28T05:06:17.727Z,79.14
2023-02-28T05:11:40.691Z,79.40
2023-02-28T05:17:02.614Z,79.21
2023-02-28T05:22:24.624Z,79.64
2023-02-28T05:27:46.798Z,79.51
2023-02-28T05:33:12.115Z,79.73
2023-02-28T05:38:34.062Z,78.97
2023-02-28T05:43:56.021Z,78.97
2023-02-28T05:49:17.985Z,79.38
2023-02-28T05:54:39.845Z,79.46
2023-02-28T06:00:02.287Z,67.15
2023-02-28T06:05:24.519Z,59.25
2023-02-28T06:10:46.441Z,52.17
2023-02-28T06:16:11.476Z,48.59
2023-02-28T06:21:33.613Z,43.49
2023-02-28T06:26:55.594Z,41.60
2023-02-28T06:32:17.518Z,37.73
2023-02-28T06:37:41.714Z,36.52
2023-02-28T06:43:04.761Z,34.93
2023-02-28T06:48:27.936Z,42.96
2023-02-28T06:53:49.893Z,45.62
2023-02-28T06:59:11.806Z,48.41
2023-02-28T07:04:33.638Z,43.17
2023-02-28T07:09:55.549Z,32.16
2023-02-28T07:15:17.565Z,28.52
2023-02-28T07:20:39.399Z,28.06
2023-02-28T07:26:01.307Z,25.54
2023-02-28T07:31:23.300Z,25.42
2023-02-28T07:36:45.420Z,23.31
2023-02-28T07:42:07.918Z,22.70
2023-02-28T07:47:32.708Z,22.54
2023-02-28T07:52:54.710Z,21.34
2023-02-28T07:58:16.655Z,22.14
2023-02-28T08:03:40.120Z,22.27
2023-02-28T08:09:01.946Z,21.27
2023-02-28T08:14:23.795Z,20.11
2023-02-28T08:19:48.772Z,21.19
2023-02-28T08:25:10.894Z,21.90
2023-02-28T08:30:33.237Z,21.34
2023-02-28T08:35:56.137Z,20.97
2023-02-28T08:41:18.524Z,20.70
2023-02-28T08:46:40.441Z,21.79
2023-02-28T08:52:02.322Z,21.02
2023-02-28T08:57:24.294Z,20.30
2023-02-28T09:02:46.163Z,24.96
2023-02-28T09:08:08.038Z,20.16
2023-02-28T09:13:30.888Z,21.96
2023-02-28T09:18:52.932Z,21.21
2023-02-28T09:24:14.778Z,23.61
2023-02-28T09:29:36.825Z,22.09
2023-02-28T09:34:58.652Z,21.20
2023-02-28T09:40:23.325Z,20.38
2023-02-28T09:46:01.100Z,22.05
2023-02-28T09:51:44.922Z,21.53
2023-02-28T09:57:35.952Z,20.29
2023-02-28T10:03:05.359Z,23.93
2023-02-28T10:08:30.224Z,24.10
2023-02-28T10:14:02.086Z,23.04
2023-02-28T10:19:33.986Z,22.98
2023-02-28T10:24:58.462Z,26.04
2023-02-28T10:30:20.576Z,25.86
2023-02-28T10:35:42.496Z,31.43
2023-02-28T10:41:17.493Z,32.17
2023-02-28T10:46:41.621Z,32.36
2023-02-28T10:52:03.584Z,32.87
2023-02-28T10:57:25.551Z,35.28
2023-02-28T11:02:47.448Z,36.32
2023-02-28T11:08:16.115Z,35.82
2023-02-28T11:13:38.324Z,36.11
2023-02-28T11:19:00.617Z,36.87
2023-02-28T11:24:30.865Z,37.20
2023-02-28T11:29:52.799Z,36.54
2023-02-28T11:35:36.050Z,38.53
2023-02-28T11:40:57.880Z,37.82
2023-02-28T11:46:42.036Z,39.14
2023-02-28T11:52:42.404Z,40.05
2023-02-28T11:58:25.845Z,39.02
2023-02-28T12:03:50.525Z,38.59
2023-02-28T12:09:38.754Z,39.46
2023-02-28T12:15:17.843Z,38.87
2023-02-28T12:20:58.030Z,39.59
2023-02-28T12:26:41.827Z,39.88
2023-02-28T12:32:13.977Z,39.17
2023-02-28T12:37:44.274Z,39.79
2023-02-28T12:43:10.488Z,39.15
2023-02-28T12:48:49.525Z,40.31
2023-02-28T12:54:33.309Z,40.97
2023-02-28T13:00:03.287Z,40.04
2023-02-28T13:05:56.404Z,40.94
2023-02-28T13:11:48.825Z,39.99
2023-02-28T13:17:10.641Z,40.10
2023-02-28T13:22:47.527Z,39.93
2023-02-28T13:28:15.008Z,39.78
2023-02-28T13:33:57.595Z,39.55
2023-02-28T13:39:35.367Z,40.00
2023-02-28T13:45:04.309Z,39.84
2023-02-28T13:50:42.332Z,41.25
2023-02-28T13:56:07.025Z,40.33
2023-02-28T14:02:06.611Z,40.98
2023-02-28T14:07:42.433Z,40.87
2023-02-28T14:13:31.090Z,41.37
2023-02-28T14:18:59.903Z,42.14
2023-02-28T14:24:41.316Z,41.51
2023-02-28T14:30:25.853Z,41.84
2023-02-28T14:36:21.308Z,41.27
2023-02-28T14:41:44.961Z,42.30
2023-02-28T14:47:16.837Z,41.82
2023-02-28T14:52:38.755Z,41.69
2023-02-28T14:58:04.001Z,42.05
2023-02-28T15:03:31.264Z,42.18
2023-02-28T15:09:16.602Z,43.54
2023-02-28T15:14:40.347Z,42.51
2023-02-28T15:20:02.836Z,43.28
2023-02-28T15:25:25.681Z,44.00
2023-02-28T15:31:02.504Z,44.62
2023-02-28T15:36:31.081Z,45.03
2023-02-28T15:41:53.387Z,44.70
2023-02-28T15:47:27.978Z,44.67
2023-02-28T15:52:49.861Z,44.73
2023-02-28T15:58:13.466Z,45.47
2023-02-28T16:03:42.382Z,47.03
2023-02-28T16:09:05.897Z,47.72
2023-02-28T16:14:29.547Z,47.82
2023-02-28T16:19:51.604Z,48.35
2023-02-28T16:25:16.197Z,49.07
2023-02-28T16:30:38.130Z,49.91
2023-02-28T16:36:00.725Z,50.43
2023-02-28T16:41:25.043Z,51.00
2023-02-28T16:46:46.893Z,51.26
2023-02-28T16:52:09.827Z,51.73
2023-02-28T16:57:33.054Z,52.39
2023-02-28T17:02:57.101Z,52.55
2023-02-28T17:08:19.040Z,53.80
2023-02-28T17:13:40.956Z,53.86
2023-02-28T17:19:05.246Z,54.13
2023-02-28T17:24:31.209Z,54.44
2023-02-28T17:29:53.439Z,55.22
2023-02-28T17:35:16.199Z,55.74
2023-02-28T17:40:38.065Z,55.88
2023-02-28T17:46:00.036Z,56.20
2023-02-28T17:51:24.378Z,56.36
2023-02-28T17:56:46.636Z,56.96
2023-02-28T18:02:12.402Z,57.73
2023-02-28T18:07:34.638Z,57.28
2023-02-28T18:12:56.515Z,57.48
2023-02-28T18:18:18.439Z,58.30
2023-02-28T18:23:40.987Z,58.65
2023-02-28T18:29:03.083Z,58.27
2023-02-28T18:34:25.750Z,59.07
2023-02-28T18:39:47.678Z,58.49
2023-02-28T18:45:12.459Z,59.27
2023-02-28T18:50:37.996Z,58.73
2023-02-28T18:56:04.283Z,59.83
2023-02-28T19:01:28.103Z,60.22
2023-02-28T19:06:50.234Z,60.74
2023-02-28T19:12:12.153Z,60.77
2023-02-28T19:17:34.260Z,60.61
2023-02-28T19:22:56.155Z,61.39
2023-02-28T19:28:18.032Z,61.85
2023-02-28T19:33:40.554Z,62.61
2023-02-28T19:39:02.837Z,62.02
2023-02-28T19:44:24.786Z,62.71
2023-02-28T19:49:46.709Z,63.66
2023-02-28T19:55:09.868Z,63.98
2023-02-28T20:00:31.993Z,64.81
2023-02-28T20:06:02.877Z,64.12
2023-02-28T20:11:25.073Z,64.62
2023-02-28T20:16:47.079Z,64.73
2023-02-28T20:22:13.677Z,65.02
2023-02-28T20:27:39.073Z,65.78
2023-02-28T20:33:01.448Z,65.84
2023-02-28T20:38:23.423Z,66.25
2023-02-28T20:43:45.887Z,66.22
2023-02-28T20:49:07.758Z,66.38
2023-02-28T20:54:29.805Z,66.93
2023-02-28T20:59:51.700Z,66.73
2023-02-28T21:05:13.557Z,67.16
2023-02-28T21:10:35.511Z,67.65
2023-02-28T21:15:57.390Z,67.30
2023-02-28T21:21:21.843Z,68.04
2023-02-28T21:26:45.155Z,68.02
2023-02-28T21:32:07.069Z,67.83
2023-02-28T21:37:29.015Z,67.83
2023-02-28T21:42:50.868Z,67.76
2023-02-28T21:48:12.816Z,68.46
2023-02-28T21:53:37.496Z,68.21
2023-02-28T21:59:01.022Z,69.08
2023-02-28T22:04:23.030Z,69.59
2023-02-28T22:09:44.907Z,69.63
2023-02-28T22:15:07.393Z,70.73
2023-02-28T22:20:29.334Z,71.54
2023-02-28T22:25:51.212Z,72.00
2023-02-28T22:31:19.363Z,72.51
2023-02-28T22:36:42.692Z,73.04
2023-02-28T22:42:04.598Z,74.22
2023-02-28T22:47:26.592Z,73.97
2023-02-28T22:52:48.460Z,74.85
2023-02-28T22:58:10.287Z,73.96
2023-02-28T23:03:32.152Z,73.37
2023-02-28T23:08:57.732Z,72.76
2023-02-28T23:14:21.143Z,73.76
2023-02-28T23:19:42.988Z,73.71
2023-02-28T23:25:05.445Z,73.45
2023-02-28T23:30:27.276Z,74.00
2023-02-28T23:35:49.262Z,74.27
2023-02-28T23:41:12.528Z,73.82
2023-02-28T23:46:34.402Z,73.93
2023-02-28T23:51:56.235Z,74.65
2023-02-28T23:57:18.122Z,75.11
